Time;durP1;ratioP1;P1;durP2;ratioP2;P2;SDS_P1;SDS_P2;PMS_P1;PMS_P2;Temp;Humidity;BMP_temperature;BMP_pressure;BME280_temperature;BME280_humidity;BME280_pressure;Samples;Min_cycle;Max_cycle;Signal;HPM_P1;HPM_P2
2021/01/30 00:01:45;;;;;;;1999.90;999.90;;;8.20;99.90;;;;;;5061127;28;20167;-78
2021/01/30 00:04:14;;;;;;;1999.90;999.90;;;8.20;99.90;;;;;;5059766;28;20192;-80
2021/01/30 00:06:53;;;;;;;1999.90;999.90;;;8.30;99.90;;;;;;5059248;28;20164;-80
2021/01/30 00:09:20;;;;;;;1999.90;999.90;;;8.30;99.90;;;;;;5060250;28;20243;-81
2021/01/30 00:11:48;;;;;;;1999.90;999.90;;;8.30;99.90;;;;;;5060460;28;20688;-80
2021/01/30 00:14:14;;;;;;;1999.90;999.90;;;8.30;99.90;;;;;;5060014;28;20165;-80
2021/01/30 00:16:40;;;;;;;1999.90;999.90;;;8.30;99.90;;;;;;5058817;28;20168;-80
2021/01/30 00:19:05;;;;;;;1999.90;999.90;;;8.20;99.90;;;;;;5059825;28;20224;-80
2021/01/30 00:21:31;;;;;;;1999.90;999.90;;;8.20;99.90;;;;;;5060222;28;20222;-80
2021/01/30 00:23:56;;;;;;;1999.90;999.90;;;8.20;99.90;;;;;;5059371;28;20635;-80
2021/01/30 00:26:22;;;;;;;1999.90;999.90;;;8.30;99.90;;;;;;5059979;28;20160;-80
2021/01/30 00:28:48;;;;;;;1999.90;999.90;;;8.30;99.90;;;;;;5059842;28;20161;-80
2021/01/30 00:31:13;;;;;;;1999.90;999.90;;;8.30;99.90;;;;;;5060233;28;20251;-80
2021/01/30 00:33:39;;;;;;;1999.90;999.90;;;8.30;99.90;;;;;;5059819;28;20253;-80
2021/01/30 00:36:05;;;;;;;1999.90;999.90;;;8.30;99.90;;;;;;5059190;28;20172;-81
2021/01/30 00:38:30;;;;;;;1999.90;999.90;;;8.30;99.90;;;;;;5060368;28;20191;-80
2021/01/30 00:40:56;;;;;;;1999.90;999.90;;;8.20;99.90;;;;;;5060552;28;20467;-80
2021/01/30 00:43:21;;;;;;;1999.90;999.90;;;8.30;99.90;;;;;;5058369;28;20227;-81
2021/01/30 00:45:47;;;;;;;1999.90;999.90;;;8.30;99.90;;;;;;5059779;28;20181;-80
2021/01/30 00:48:13;;;;;;;1999.90;999.90;;;8.20;99.90;;;;;;5060282;28;20174;-81
2021/01/30 00:50:38;;;;;;;1999.90;999.90;;;8.30;99.90;;;;;;5058491;28;20204;-80
2021/01/30 00:53:04;;;;;;;1999.90;999.90;;;8.30;99.90;;;;;;5059413;28;20252;-81
2021/01/30 00:55:29;;;;;;;1999.90;999.90;;;8.20;99.90;;;;;;5059496;28;20363;-80
2021/01/30 00:57:55;;;;;;;1999.90;999.90;;;8.20;99.90;;;;;;5059791;28;20302;-80
2021/01/30 01:00:27;;;;;;;1999.90;999.90;;;8.20;99.90;;;;;;5057892;28;20184;-80
2021/01/30 01:02:54;;;;;;;1999.90;999.90;;;8.20;99.90;;;;;;5057168;28;20184;-80
2021/01/30 01:05:21;;;;;;;1999.90;999.90;;;8.20;99.90;;;;;;5058313;28;20168;-80
2021/01/30 01:07:46;;;;;;;1999.90;999.90;;;8.20;99.90;;;;;;5058663;28;20168;-80
2021/01/30 01:10:15;;;;;;;1999.90;999.90;;;8.20;99.90;;;;;;5056696;28;20222;-80
2021/01/30 01:12:41;;;;;;;1999.90;999.90;;;8.20;99.90;;;;;;5058924;28;20164;-80
2021/01/30 01:15:09;;;;;;;1999.90;999.90;;;8.30;99.90;;;;;;5058052;28;20593;-80
2021/01/30 01:17:35;;;;;;;1999.90;999.90;;;8.20;99.90;;;;;;5058222;28;20168;-80
2021/01/30 01:20:01;;;;;;;1999.90;999.90;;;8.20;99.90;;;;;;5059141;28;20616;-80
2021/01/30 01:22:26;;;;;;;1999.90;999.90;;;8.10;99.90;;;;;;5058117;28;20194;-80
2021/01/30 01:24:52;;;;;;;1999.90;999.90;;;8.10;99.90;;;;;;5057901;28;20778;-80
2021/01/30 01:27:18;;;;;;;1999.90;999.90;;;8.00;99.90;;;;;;5058137;28;20160;-80
2021/01/30 01:29:43;;;;;;;1999.90;999.90;;;8.00;99.90;;;;;;5057935;28;20242;-80
2021/01/30 01:32:09;;;;;;;1999.90;999.90;;;7.90;99.90;;;;;;5057647;28;20194;-80
2021/01/30 01:34:35;;;;;;;1999.90;999.90;;;7.90;99.90;;;;;;5057794;28;20168;-80
2021/01/30 01:37:04;;;;;;;1999.90;999.90;;;7.90;99.90;;;;;;5058044;28;20168;-80
2021/01/30 01:39:32;;;;;;;1999.90;999.90;;;7.90;99.90;;;;;;5057807;28;20160;-80
2021/01/30 01:42:19;;;;;;;1999.90;999.90;;;7.80;99.90;;;;;;5058897;28;20163;-80
2021/01/30 01:44:46;;;;;;;1999.90;999.90;;;7.80;99.90;;;;;;5057034;28;20652;-80
2021/01/30 01:47:18;;;;;;;1999.90;999.90;;;7.80;99.90;;;;;;5057517;28;20251;-80
2021/01/30 01:49:45;;;;;;;1999.90;999.90;;;7.70;99.90;;;;;;5122523;22;20647;-82
2021/01/30 01:52:33;;;;;;;1999.90;999.90;;;7.70;99.90;;;;;;5055214;28;20164;-82
2021/01/30 01:55:10;;;;;;;1999.90;999.90;;;7.70;99.90;;;;;;5054674;28;20161;-83
2021/01/30 01:57:44;;;;;;;1999.90;999.90;;;7.70;99.90;;;;;;5036856;28;20236;-82
2021/01/30 02:00:10;;;;;;;1999.90;999.90;;;7.70;99.90;;;;;;5055453;28;20552;-83
2021/01/30 02:02:36;;;;;;;1999.90;999.90;;;7.70;99.90;;;;;;5055633;28;20192;-82
2021/01/30 02:05:12;;;;;;;1999.90;999.90;;;7.70;99.90;;;;;;5054868;28;20180;-83
2021/01/30 02:07:40;;;;;;;1999.90;999.90;;;7.70;99.90;;;;;;5055085;28;20233;-83
2021/01/30 02:10:09;;;;;;;1999.90;999.90;;;7.70;99.90;;;;;;5055229;28;20179;-83
2021/01/30 02:12:35;;;;;;;1999.90;999.90;;;7.60;99.90;;;;;;5036973;28;20298;-83
2021/01/30 02:15:01;;;;;;;1999.90;999.90;;;7.60;99.90;;;;;;5038042;28;20200;-83
2021/01/30 02:17:41;;;;;;;1999.90;999.90;;;7.60;99.90;;;;;;5054997;28;20164;-83
2021/01/30 02:20:46;;;;;;;1999.90;999.90;;;7.60;99.90;;;;;;5055529;28;20156;-83
2021/01/30 02:23:24;;;;;;;1999.90;999.90;;;7.60;99.90;;;;;;5054839;28;20556;-83
2021/01/30 02:26:13;;;;;;;1999.90;999.90;;;7.50;99.90;;;;;;5055029;28;20180;-83
2021/01/30 02:29:13;;;;;;;1999.90;999.90;;;7.50;99.90;;;;;;5037066;28;20251;-83
2021/01/30 02:31:53;;;;;;;1999.90;999.90;;;7.50;99.90;;;;;;5054945;28;20153;-83
2021/01/30 02:34:25;;;;;;;1999.90;999.90;;;7.50;99.90;;;;;;5055598;28;20153;-83
2021/01/30 02:36:57;;;;;;;1999.90;999.90;;;7.50;99.90;;;;;;5055154;28;20180;-83
2021/01/30 02:39:36;;;;;;;1999.90;999.90;;;7.30;99.90;;;;;;5036741;28;20168;-83
2021/01/30 02:42:16;;;;;;;1999.90;999.90;;;7.10;99.90;;;;;;5054803;28;20156;-83
2021/01/30 02:44:49;;;;;;;1999.90;999.90;;;7.00;99.90;;;;;;5037068;28;20196;-83
2021/01/30 02:47:19;;;;;;;1999.90;999.90;;;6.90;99.90;;;;;;5054875;28;20160;-83
2021/01/30 02:49:51;;;;;;;1999.90;999.90;;;7.00;99.90;;;;;;5036690;28;20176;-83
2021/01/30 02:52:20;;;;;;;1999.90;999.90;;;7.00;99.90;;;;;;5055364;28;20730;-84
2021/01/30 02:54:47;;;;;;;1999.90;999.90;;;7.00;99.90;;;;;;5037576;28;20172;-84
2021/01/30 02:57:15;;;;;;;1999.90;999.90;;;6.90;99.90;;;;;;5055033;28;20520;-83
2021/01/30 02:59:46;;;;;;;1999.90;999.90;;;6.90;99.90;;;;;;5039487;28;20231;-83
2021/01/30 03:02:12;;;;;;;1999.90;999.90;;;6.70;99.90;;;;;;5058376;28;20148;-83
2021/01/30 03:04:38;;;;;;;1999.90;999.90;;;6.70;99.90;;;;;;5058602;28;20294;-84
2021/01/30 03:07:35;;;;;;;1999.90;999.90;;;6.50;99.90;;;;;;5040251;28;20415;-83
2021/01/30 03:10:08;;;;;;;1999.90;999.90;;;6.30;99.90;;;;;;5040248;28;20713;-84
2021/01/30 03:12:53;;;;;;;1999.90;999.90;;;6.10;99.90;;;;;;5039973;28;20290;-83
2021/01/30 03:15:32;;;;;;;1999.90;999.90;;;6.00;99.90;;;;;;5058361;28;20157;-83
2021/01/30 03:18:01;;;;;;;1999.90;999.90;;;6.10;99.90;;;;;;5039783;28;20156;-83
2021/01/30 03:20:30;;;;;;;1999.90;999.90;;;6.10;99.90;;;;;;5039168;28;20176;-82
2021/01/30 03:22:58;;;;;;;1999.90;999.90;;;6.00;99.90;;;;;;5057284;28;20192;-83
2021/01/30 03:25:26;;;;;;;1999.90;999.90;;;6.10;99.90;;;;;;5057610;28;20654;-82
2021/01/30 03:27:55;;;;;;;1999.90;999.90;;;6.00;99.90;;;;;;5039648;28;20165;-82
2021/01/30 03:30:22;;;;;;;1999.90;999.90;;;5.80;99.90;;;;;;5057786;28;20164;-82
2021/01/30 03:32:47;;;;;;;1999.90;999.90;;;5.80;99.90;;;;;;5057233;28;20573;-83
2021/01/30 03:35:13;;;;;;;1999.90;999.90;;;5.80;99.90;;;;;;5057894;28;20171;-82
2021/01/30 03:37:40;;;;;;;1999.90;999.90;;;5.70;99.90;;;;;;5057300;28;20582;-82
2021/01/30 03:40:07;;;;;;;1999.90;999.90;;;5.60;99.90;;;;;;5039158;28;20196;-82
2021/01/30 03:42:33;;;;;;;1999.90;999.90;;;5.50;99.90;;;;;;5056493;28;20192;-82
2021/01/30 03:44:58;;;;;;;1999.90;999.90;;;5.50;99.90;;;;;;5056566;28;20223;-81
2021/01/30 03:47:24;;;;;;;1999.90;999.90;;;5.50;99.90;;;;;;5056375;28;20494;-82
2021/01/30 03:49:50;;;;;;;1999.90;999.90;;;5.30;99.90;;;;;;5056182;28;20230;-82
2021/01/30 03:52:16;;;;;;;1999.90;999.90;;;5.30;99.90;;;;;;5057009;28;20176;-81
2021/01/30 03:54:41;;;;;;;1999.90;999.90;;;5.00;99.90;;;;;;5056954;28;20486;-81
2021/01/30 03:57:07;;;;;;;1999.90;999.90;;;4.90;99.90;;;;;;5057186;28;20168;-82
2021/01/30 03:59:33;;;;;;;1999.90;999.90;;;4.70;99.90;;;;;;5038801;28;20222;-82
2021/01/30 04:01:59;;;;;;;1999.90;999.90;;;4.80;99.90;;;;;;5056524;28;20168;-82
2021/01/30 04:04:25;;;;;;;1999.90;999.90;;;4.70;99.90;;;;;;5056571;28;20192;-81
2021/01/30 04:06:51;;;;;;;1999.90;999.90;;;4.70;99.90;;;;;;5056484;28;20161;-81
2021/01/30 04:09:19;;;;;;;1999.90;999.90;;;4.60;99.90;;;;;;5056411;28;20403;-81
2021/01/30 04:11:47;;;;;;;1999.90;999.90;;;4.60;99.90;;;;;;5056289;28;20167;-81
2021/01/30 04:14:14;;;;;;;1999.90;999.90;;;4.70;99.90;;;;;;5056632;28;20161;-81
2021/01/30 04:16:39;;;;;;;1999.90;999.90;;;4.80;99.90;;;;;;5056391;28;20195;-82
2021/01/30 04:19:05;;;;;;;1999.90;999.90;;;4.70;99.90;;;;;;5039358;28;20247;-82
2021/01/30 04:21:31;;;;;;;1999.90;999.90;;;4.70;99.90;;;;;;5056172;28;20912;-82
2021/01/30 04:23:57;;;;;;;1999.90;999.90;;;4.80;99.90;;;;;;5056066;28;20192;-83
2021/01/30 04:26:23;;;;;;;1999.90;999.90;;;4.70;99.90;;;;;;5056288;28;20451;-82
2021/01/30 04:28:51;;;;;;;1999.90;999.90;;;4.60;99.90;;;;;;5056492;28;20402;-82
2021/01/30 04:31:18;;;;;;;1999.90;999.90;;;4.60;99.90;;;;;;5038093;28;20310;-81
2021/01/30 04:33:48;;;;;;;1999.90;999.90;;;4.60;99.90;;;;;;5056617;28;20683;-82
2021/01/30 04:36:15;;;;;;;1999.90;999.90;;;4.70;99.90;;;;;;5055870;28;20168;-82
2021/01/30 04:38:41;;;;;;;1999.90;999.90;;;4.70;99.90;;;;;;5055885;28;20172;-82
2021/01/30 04:41:21;;;;;;;1999.90;999.90;;;4.70;99.90;;;;;;5055734;28;20165;-81
2021/01/30 04:44:10;;;;;;;1999.90;999.90;;;4.70;99.90;;;;;;5055900;28;20176;-82
2021/01/30 04:46:57;;;;;;;1999.90;999.90;;;4.70;99.90;;;;;;4990503;28;20203;-82
2021/01/30 04:49:44;;;;;;;1999.90;999.90;;;4.70;99.90;;;;;;5038049;28;20188;-82
2021/01/30 04:52:36;;;;;;;1999.90;999.90;;;4.70;99.90;;;;;;5038820;28;20294;-82
2021/01/30 04:55:21;;;;;;;1999.90;999.90;;;4.70;99.90;;;;;;5037833;28;20169;-82
2021/01/30 04:58:02;;;;;;;1999.90;999.90;;;4.70;99.90;;;;;;5055857;28;20221;-82
2021/01/30 05:00:34;;;;;;;1999.90;999.90;;;4.60;99.90;;;;;;5037566;28;20156;-82
2021/01/30 05:03:21;;;;;;;1999.90;999.90;;;4.60;99.90;;;;;;5037412;28;20602;-82
2021/01/30 05:05:52;;;;;;;1999.90;999.90;;;4.50;99.90;;;;;;5037286;28;20683;-81
2021/01/30 05:08:23;;;;;;;1999.90;999.90;;;4.50;99.90;;;;;;5055583;28;20148;-82
2021/01/30 05:11:02;;;;;;;1999.90;999.90;;;4.30;99.90;;;;;;5037128;28;20164;-82
2021/01/30 05:13:34;;;;;;;1999.90;999.90;;;4.30;99.90;;;;;;5055363;28;20163;-82
2021/01/30 05:16:05;;;;;;;1999.90;999.90;;;4.30;99.90;;;;;;5054850;28;20161;-82
2021/01/30 05:18:32;;;;;;;1999.90;999.90;;;4.30;99.90;;;;;;5055061;28;20156;-82
2021/01/30 05:21:08;;;;;;;1999.90;999.90;;;4.40;99.90;;;;;;5036483;28;20169;-82
2021/01/30 05:23:35;;;;;;;1999.90;999.90;;;4.40;99.90;;;;;;5037295;28;20207;-82
2021/01/30 05:26:10;;;;;;;1999.90;999.90;;;4.40;99.90;;;;;;5036718;28;20164;-82
2021/01/30 05:29:05;;;;;;;1999.90;999.90;;;4.40;99.90;;;;;;5036724;28;20164;-82
2021/01/30 05:31:57;;;;;;;1999.90;999.90;;;4.30;99.90;;;;;;5037398;28;20160;-82
2021/01/30 05:34:36;;;;;;;1999.90;999.90;;;4.30;99.90;;;;;;5036979;28;20547;-82
2021/01/30 05:37:10;;;;;;;1999.90;999.90;;;4.40;99.90;;;;;;5054687;28;20180;-81
2021/01/30 05:40:01;;;;;;;1999.90;999.90;;;4.30;99.90;;;;;;5036748;28;20165;-82
2021/01/30 05:42:46;;;;;;;1999.90;999.90;;;4.20;99.90;;;;;;5054396;28;20210;-81
2021/01/30 05:45:38;;;;;;;1999.90;999.90;;;4.20;99.90;;;;;;5036235;28;20152;-82
2021/01/30 05:48:10;;;;;;;1999.90;999.90;;;4.30;99.90;;;;;;5054611;28;20199;-81
2021/01/30 05:50:44;;;;;;;1999.90;999.90;;;4.20;99.90;;;;;;5036353;28;20275;-81
2021/01/30 05:53:13;;;;;;;1999.90;999.90;;;4.20;99.90;;;;;;5054506;28;20168;-82
2021/01/30 05:55:39;;;;;;;1999.90;999.90;;;4.10;99.90;;;;;;5036408;28;20651;-81
2021/01/30 05:58:13;;;;;;;1999.90;999.90;;;4.10;99.90;;;;;;5053971;28;20164;-81
2021/01/30 06:00:40;;;;;;;1999.90;999.90;;;4.10;99.90;;;;;;5036196;28;21005;-81
2021/01/30 06:03:10;;;;;;;1999.90;999.90;;;4.00;99.90;;;;;;5054077;28;20267;-81
2021/01/30 06:05:46;;;;;;;1999.90;999.90;;;4.00;99.90;;;;;;5054066;28;20150;-81
2021/01/30 06:08:20;;;;;;;1999.90;999.90;;;4.00;99.90;;;;;;5035997;28;20627;-81
2021/01/30 06:10:48;;;;;;;1999.90;999.90;;;4.00;99.90;;;;;;5053912;28;20635;-81
2021/01/30 06:13:17;;;;;;;1999.90;999.90;;;3.90;99.90;;;;;;5035897;28;20207;-80
2021/01/30 06:15:46;;;;;;;1999.90;999.90;;;4.00;99.90;;;;;;5054347;28;20256;-81
2021/01/30 06:18:31;;;;;;;1999.90;999.90;;;4.20;99.90;;;;;;5053735;28;20577;-81
2021/01/30 06:21:04;;;;;;;1999.90;999.90;;;4.20;99.90;;;;;;5054308;28;20544;-82
2021/01/30 06:23:30;;;;;;;1999.90;999.90;;;4.10;99.90;;;;;;5054025;28;20580;-81
2021/01/30 06:26:19;;;;;;;1999.90;999.90;;;4.10;99.90;;;;;;5035955;28;20179;-81
2021/01/30 06:28:54;;;;;;;1999.90;999.90;;;4.10;99.90;;;;;;5036065;28;20157;-81
2021/01/30 06:31:39;;;;;;;1999.90;999.90;;;4.20;99.90;;;;;;5054211;28;20236;-81
2021/01/30 06:34:19;;;;;;;1999.90;999.90;;;4.20;99.90;;;;;;5057510;28;20149;-81
2021/01/30 06:36:49;;;;;;;1999.90;999.90;;;4.10;99.90;;;;;;5039886;28;20246;-81
2021/01/30 06:39:40;;;;;;;1999.90;999.90;;;4.20;99.90;;;;;;5057888;28;20169;-80
2021/01/30 06:42:31;;;;;;;1999.90;999.90;;;4.20;99.90;;;;;;5056954;28;20192;-80
2021/01/30 06:45:04;;;;;;;1999.90;999.90;;;4.20;99.90;;;;;;5039787;28;20165;-81
2021/01/30 06:47:30;;;;;;;1999.90;999.90;;;4.10;99.90;;;;;;5039517;28;20248;-81
2021/01/30 06:49:57;;;;;;;1999.90;999.90;;;4.10;99.90;;;;;;5057671;28;20215;-80
2021/01/30 06:52:31;;;;;;;1999.90;999.90;;;4.10;99.90;;;;;;5057312;28;20505;-81
2021/01/30 06:55:05;;;;;;;1999.90;999.90;;;4.10;99.90;;;;;;5057580;28;20159;-80
2021/01/30 06:57:33;;;;;;;1999.90;999.90;;;4.10;99.90;;;;;;5057421;28;20164;-81
2021/01/30 07:00:08;;;;;;;1999.90;999.90;;;4.00;99.90;;;;;;5057510;28;20227;-81
2021/01/30 07:02:43;;;;;;;1999.90;999.90;;;3.90;99.90;;;;;;5057374;28;20243;-80
2021/01/30 07:05:37;;;;;;;1999.90;999.90;;;4.00;99.90;;;;;;5057648;28;20148;-80
2021/01/30 07:08:21;;;;;;;1999.90;999.90;;;4.00;99.90;;;;;;5039397;28;20187;-81
2021/01/30 07:11:14;;;;;;;1999.90;999.90;;;4.00;99.90;;;;;;5057227;28;20145;-80
2021/01/30 07:13:58;;;;;;;1999.90;999.90;;;4.00;99.90;;;;;;5057636;28;20164;-80
2021/01/30 07:16:33;;;;;;;1999.90;999.90;;;3.90;99.90;;;;;;5057971;28;20659;-80
2021/01/30 07:19:24;;;;;;;1999.90;999.90;;;3.90;99.90;;;;;;5057198;28;20152;-80
2021/01/30 07:22:00;;;;;;;1999.90;999.90;;;4.00;99.90;;;;;;5056931;28;20145;-80
2021/01/30 07:24:37;;;;;;;1999.90;999.90;;;4.00;99.90;;;;;;5039035;28;20188;-81
2021/01/30 07:27:18;;;;;;;1999.90;999.90;;;3.90;99.90;;;;;;5057557;28;20152;-80
2021/01/30 07:29:50;;;;;;;1999.90;999.90;;;3.90;99.90;;;;;;5057135;28;20156;-81
2021/01/30 07:32:16;;;;;;;1999.90;999.90;;;4.00;99.90;;;;;;5056892;28;20149;-81
2021/01/30 07:35:12;;;;;;;1999.90;999.90;;;4.00;99.90;;;;;;5057095;28;20171;-81
2021/01/30 07:37:48;;;;;;;1999.90;999.90;;;4.00;99.90;;;;;;5038981;28;20161;-80
2021/01/30 07:40:20;;;;;;;1999.90;999.90;;;4.00;99.90;;;;;;5056777;28;20149;-82
2021/01/30 07:42:56;;;;;;;1999.90;999.90;;;4.00;99.90;;;;;;5056632;28;20216;-81
2021/01/30 07:45:24;;;;;;;1999.90;999.90;;;3.90;99.90;;;;;;5056344;28;20149;-81
2021/01/30 07:48:22;;;;;;;1999.90;999.90;;;3.80;99.90;;;;;;5056751;28;20674;-81
2021/01/30 07:50:59;;;;;;;1999.90;999.90;;;3.90;99.90;;;;;;5098765;22;20274;-83
2021/01/30 07:53:27;;;;;;;1999.90;999.90;;;3.70;99.90;;;;;;5040823;28;20612;-83
2021/01/30 07:56:22;;;;;;;1999.90;999.90;;;3.70;99.90;;;;;;5039318;28;20169;-83
2021/01/30 07:59:06;;;;;;;1999.90;999.90;;;3.70;99.90;;;;;;5039472;28;20221;-83
2021/01/30 08:01:41;;;;;;;1999.90;999.90;;;3.70;99.90;;;;;;5021956;28;20176;-83
2021/01/30 08:04:31;;;;;;;1999.90;999.90;;;3.70;99.90;;;;;;5039467;28;20211;-83
2021/01/30 08:07:20;;;;;;;1999.90;999.90;;;3.80;99.90;;;;;;5040224;28;20149;-83
2021/01/30 08:10:24;;;;;;;1999.90;999.90;;;3.50;99.90;;;;;;5040496;28;20145;-83
2021/01/30 08:13:12;;;;;;;1999.90;999.90;;;3.40;99.90;;;;;;4985653;28;20193;-83
2021/01/30 08:15:49;;;;;;;1999.90;999.90;;;3.40;99.90;;;;;;5039637;28;20169;-83
2021/01/30 08:18:14;;;;;;;1999.90;999.90;;;3.40;99.90;;;;;;5039854;28;20183;-83
2021/01/30 08:21:26;;;;;;;1999.90;999.90;;;3.40;99.90;;;;;;5040052;28;20203;-83
2021/01/30 08:24:03;;;;;;;1999.90;999.90;;;3.20;99.90;;;;;;4995086;28;20610;-83
2021/01/30 08:26:39;;;;;;;1999.90;999.90;;;3.30;99.90;;;;;;5040455;28;20155;-84
2021/01/30 08:29:35;;;;;;;1999.90;999.90;;;3.00;99.90;;;;;;5022829;28;20164;-84
2021/01/30 08:32:19;;;;;;;1999.90;999.90;;;3.10;99.90;;;;;;5041452;28;20149;-82
2021/01/30 08:34:45;;;;;;;1999.90;999.90;;;2.90;99.90;;;;;;5041618;28;20180;-81
2021/01/30 08:37:11;;;;;;;1999.90;999.90;;;2.90;99.90;;;;;;5041239;28;20165;-81
2021/01/30 08:39:57;;;;;;;1999.90;999.90;;;3.00;99.90;;;;;;5023581;28;20207;-81
2021/01/30 08:42:23;;;;;;;1999.90;999.90;;;2.80;99.90;;;;;;5041403;28;20649;-81
2021/01/30 08:44:49;;;;;;;1999.90;999.90;;;2.90;99.90;;;;;;5042073;28;20196;-81
2021/01/30 08:47:26;;;;;;;1999.90;999.90;;;2.90;99.90;;;;;;5042195;28;20400;-81
2021/01/30 08:49:57;;;;;;;1999.90;999.90;;;2.80;99.90;;;;;;5041688;28;20176;-81
2021/01/30 08:52:46;;;;;;;1999.90;999.90;;;2.80;99.90;;;;;;5040860;28;20166;-81
2021/01/30 08:55:44;;;;;;;1999.90;999.90;;;2.80;99.90;;;;;;5005361;28;20173;-81
2021/01/30 08:58:32;;;;;;;1999.90;999.90;;;2.80;99.90;;;;;;5018641;28;20664;-81
2021/01/30 09:01:05;;;;;;;1999.90;999.90;;;2.80;99.90;;;;;;5022526;28;20180;-81
2021/01/30 09:03:51;;;;;;;1999.90;999.90;;;3.00;99.90;;;;;;5037725;28;20192;-83
2021/01/30 09:06:41;;;;;;;1999.90;999.90;;;3.00;99.90;;;;;;5020921;28;20177;-83
2021/01/30 09:09:11;;;;;;;1999.90;999.90;;;3.30;99.90;;;;;;5020538;28;20540;-83
2021/01/30 09:11:45;;;;;;;1999.90;999.90;;;3.00;99.90;;;;;;5020924;28;20230;-84
2021/01/30 09:14:36;;;;;;;1999.90;999.90;;;3.30;99.90;;;;;;5038293;28;20162;-84
2021/01/30 09:17:05;;;;;;;1999.90;999.90;;;3.50;99.90;;;;;;5036764;28;20150;-83
2021/01/30 09:19:53;;;;;;;1999.90;999.90;;;3.30;99.90;;;;;;5036469;28;20169;-83
2021/01/30 09:22:18;;;;;;;1999.90;999.90;;;3.30;99.90;;;;;;5035290;28;20520;-84
2021/01/30 09:25:14;;;;;;;1999.90;999.90;;;3.30;99.90;;;;;;5035457;28;20193;-83
2021/01/30 09:28:01;;;;;;;1999.90;999.90;;;3.20;99.90;;;;;;5018445;28;20169;-84
2021/01/30 09:30:30;;;;;;;1999.90;999.90;;;3.30;99.90;;;;;;5018601;28;20161;-82
2021/01/30 09:32:58;;;;;;;1999.90;999.90;;;3.30;99.90;;;;;;5035859;28;20169;-81
2021/01/30 09:35:35;;;;;;;1999.90;999.90;;;3.50;99.90;;;;;;5035019;28;20172;-82
2021/01/30 09:38:24;;;;;;;1999.90;999.90;;;3.50;99.90;;;;;;5035608;28;20184;-82
2021/01/30 09:41:11;;;;;;;1999.90;999.90;;;3.20;99.90;;;;;;5017753;28;20652;-82
2021/01/30 09:43:37;;;;;;;1999.90;999.90;;;3.00;99.90;;;;;;5018323;28;20196;-82
2021/01/30 09:46:07;;;;;;;1999.90;999.90;;;2.90;99.90;;;;;;5035776;28;20524;-82
2021/01/30 09:48:36;;;;;;;1999.90;999.90;;;3.00;99.90;;;;;;5036633;28;20211;-82
2021/01/30 09:51:08;;;;;;;1999.90;999.90;;;3.00;99.90;;;;;;5035047;28;20711;-84
2021/01/30 09:53:42;;;;;;;1999.90;999.90;;;3.00;99.90;;;;;;5035299;28;20161;-84
2021/01/30 09:56:12;;;;;;;1999.90;999.90;;;3.10;99.90;;;;;;5035147;28;20153;-84
2021/01/30 09:58:41;;;;;;;1999.90;999.90;;;3.10;99.90;;;;;;5034861;28;20165;-84
2021/01/30 10:01:22;;;;;;;1999.90;999.90;;;3.10;99.90;;;;;;5035026;28;20173;-84
2021/01/30 10:03:47;;;;;;;1999.90;999.90;;;3.20;99.90;;;;;;5035189;28;20274;-84
2021/01/30 10:06:18;;;;;;;1999.90;999.90;;;3.40;99.90;;;;;;5035291;28;20161;-84
2021/01/30 10:08:45;;;;;;;1999.90;999.90;;;3.20;99.90;;;;;;5040247;28;20244;-84
2021/01/30 10:11:22;;;;;;;1999.90;999.90;;;3.10;99.90;;;;;;5024968;28;20223;-84
2021/01/30 10:13:54;;;;;;;1999.90;999.90;;;3.10;99.90;;;;;;5024773;28;20582;-84
2021/01/30 10:16:25;;;;;;;1999.90;999.90;;;2.80;99.90;;;;;;5023842;28;20195;-84
2021/01/30 10:18:59;;;;;;;1999.90;999.90;;;2.90;99.90;;;;;;5023504;28;20165;-84
2021/01/30 10:21:37;;;;;;;1999.90;999.90;;;2.90;99.90;;;;;;5041946;28;20597;-84
2021/01/30 10:24:13;;;;;;;1999.90;999.90;;;3.00;99.90;;;;;;5024216;28;20280;-84
2021/01/30 10:26:39;;;;;;;1999.90;999.90;;;2.90;99.90;;;;;;5022801;28;20259;-84
2021/01/30 10:29:09;;;;;;;1999.90;999.90;;;2.80;99.90;;;;;;5041746;28;20571;-84
2021/01/30 10:31:42;;;;;;;1999.90;999.90;;;2.80;99.90;;;;;;5041784;28;20467;-84
2021/01/30 10:34:21;;;;;;;1999.90;999.90;;;2.90;99.90;;;;;;5042157;28;20157;-84
2021/01/30 10:36:53;;;;;;;1999.90;999.90;;;3.00;99.90;;;;;;5042181;28;20166;-84
2021/01/30 10:39:22;;;;;;;1999.90;999.90;;;3.00;99.90;;;;;;5041437;28;20161;-84
2021/01/30 10:41:49;;;;;;;1999.90;999.90;;;3.00;99.90;;;;;;5023713;28;20540;-84
2021/01/30 10:44:26;;;;;;;1999.90;999.90;;;2.90;99.90;;;;;;5023684;28;20193;-84
2021/01/30 10:46:59;;;;;;;1999.90;999.90;;;3.00;99.90;;;;;;5041408;28;20156;-84
2021/01/30 10:49:27;;;;;;;1999.90;999.90;;;3.20;99.90;;;;;;5041826;28;20173;-84
2021/01/30 10:52:08;;;;;;;1999.90;999.90;;;3.20;99.90;;;;;;5040679;28;20181;-84
2021/01/30 10:54:34;;;;;;;1999.90;999.90;;;3.20;99.90;;;;;;5041613;28;20155;-84
2021/01/30 10:57:22;;;;;;;1999.90;999.90;;;3.20;99.90;;;;;;5023316;28;20176;-84
2021/01/30 11:00:01;;;;;;;1999.90;999.90;;;3.30;99.90;;;;;;5023294;28;20658;-84
2021/01/30 11:02:45;;;;;;;1999.90;999.90;;;3.30;99.90;;;;;;5040949;28;20176;-84
2021/01/30 11:05:25;;;;;;;1999.90;999.90;;;3.40;99.90;;;;;;5023377;28;20702;-84
2021/01/30 11:08:02;;;;;;;1999.90;999.90;;;3.40;99.90;;;;;;5041223;28;20191;-85
2021/01/30 11:10:44;;;;;;;1999.90;999.90;;;3.30;99.90;;;;;;5023498;28;20527;-84
2021/01/30 11:13:24;;;;;;;1999.90;999.90;;;3.40;99.90;;;;;;5041481;28;20153;-84
2021/01/30 11:15:50;;;;;;;1999.90;999.90;;;3.40;99.90;;;;;;5023105;28;20176;-85
2021/01/30 11:18:28;;;;;;;1999.90;999.90;;;3.20;99.90;;;;;;5040460;28;20214;-84
2021/01/30 11:20:55;;;;;;;1999.90;999.90;;;3.20;99.90;;;;;;5037369;28;20172;-85
2021/01/30 11:23:41;;;;;;;1999.90;999.90;;;3.00;99.90;;;;;;5020246;28;20287;-84
2021/01/30 11:26:32;;;;;;;1999.90;999.90;;;3.10;99.90;;;;;;5038547;28;20157;-85
2021/01/30 11:28:58;;;;;;;1999.90;999.90;;;3.10;99.90;;;;;;5038000;28;20161;-84
2021/01/30 11:31:25;;;;;;;1999.90;999.90;;;3.10;99.90;;;;;;5038039;28;20256;-84
2021/01/30 11:33:58;;;;;;;1999.90;999.90;;;3.10;99.90;;;;;;5037669;28;20153;-84
2021/01/30 11:36:27;;;;;;;1999.90;999.90;;;3.30;99.90;;;;;;5019688;28;20176;-84
2021/01/30 11:39:08;;;;;;;1999.90;999.90;;;3.20;99.90;;;;;;5019125;28;20536;-84
2021/01/30 11:41:39;;;;;;;1999.90;999.90;;;3.30;99.90;;;;;;5019665;28;20320;-82
2021/01/30 11:44:08;;;;;;;1999.90;999.90;;;3.30;99.90;;;;;;5037312;28;20181;-82
2021/01/30 11:46:33;;;;;;;1999.90;999.90;;;3.30;99.90;;;;;;5019509;28;20169;-82
2021/01/30 11:48:59;;;;;;;1999.90;999.90;;;3.20;99.90;;;;;;5020065;28;20180;-82
2021/01/30 11:51:29;;;;;;;1999.90;999.90;;;3.20;99.90;;;;;;5019540;28;20177;-82
2021/01/30 11:53:58;;;;;;;1999.90;999.90;;;3.20;99.90;;;;;;5037375;28;20177;-82
2021/01/30 11:56:24;;;;;;;1999.90;999.90;;;3.30;99.90;;;;;;5019113;28;20275;-82
2021/01/30 11:58:49;;;;;;;1999.90;999.90;;;3.30;99.90;;;;;;5018899;28;20176;-82
2021/01/30 12:01:16;;;;;;;1999.90;999.90;;;3.40;99.90;;;;;;5037755;28;20165;-82
2021/01/30 12:03:41;;;;;;;1999.90;999.90;;;3.40;99.90;;;;;;5018466;28;20205;-82
2021/01/30 12:06:07;;;;;;;1999.90;999.90;;;3.40;99.90;;;;;;5019227;28;20283;-82
2021/01/30 12:08:33;;;;;;;1999.90;999.90;;;3.40;99.90;;;;;;5036911;28;20197;-82
2021/01/30 12:10:59;;;;;;;1999.90;999.90;;;3.30;99.90;;;;;;5036154;28;20446;-82
2021/01/30 12:13:25;;;;;;;1999.90;999.90;;;3.30;99.90;;;;;;5036424;28;20633;-82
2021/01/30 12:15:51;;;;;;;1999.90;999.90;;;3.40;99.90;;;;;;5037143;28;20929;-84
2021/01/30 12:18:18;;;;;;;1999.90;999.90;;;3.60;99.90;;;;;;5036251;28;20248;-83
2021/01/30 12:20:45;;;;;;;1999.90;999.90;;;3.60;99.90;;;;;;5018604;28;20636;-83
2021/01/30 12:23:12;;;;;;;1999.90;999.90;;;3.60;99.90;;;;;;5035873;28;20185;-83
2021/01/30 12:25:37;;;;;;;1999.90;999.90;;;3.70;99.90;;;;;;5018726;28;20173;-83
2021/01/30 12:28:05;;;;;;;1999.90;999.90;;;3.80;99.90;;;;;;5018517;28;20637;-81
2021/01/30 12:30:36;;;;;;;1999.90;999.90;;;3.80;99.90;;;;;;5019052;28;20205;-81
2021/01/30 12:33:02;;;;;;;1999.90;999.90;;;3.70;99.90;;;;;;5036423;28;20152;-81
2021/01/30 12:35:31;;;;;;;1999.90;999.90;;;3.90;99.90;;;;;;5036696;28;20170;-81
2021/01/30 12:37:57;;;;;;;1999.90;999.90;;;3.90;99.90;;;;;;5018527;28;20177;-81
2021/01/30 12:40:26;;;;;;;1999.90;999.90;;;3.90;99.90;;;;;;5036369;28;20169;-81